Time;durP1;ratioP1;P1;durP2;ratioP2;P2;SDS_P1;SDS_P2;PMS_P1;PMS_P2;Temp;Humidity;BMP_temperature;BMP_pressure;BME280_temperature;BME280_humidity;BME280_pressure;Samples;Min_cycle;Max_cycle;Signal;HPM_P1;HPM_P2
2024/01/31 00:00:55;;;;;;;5.00;2.30;;;9.20;99.90;;;;;;5075308;28;20526;-58
2024/01/31 00:03:22;;;;;;;5.30;2.50;;;9.20;99.90;;;;;;5084635;28;20823;-59
2024/01/31 00:05:49;;;;;;;5.15;2.50;;;9.30;99.90;;;;;;5094431;28;20436;-58
2024/01/31 00:08:18;;;;;;;7.97;3.28;;;9.30;99.90;;;;;;5095438;28;20800;-57
2024/01/31 00:10:45;;;;;;;6.60;2.60;;;9.30;1.00;;;;;;5094592;28;20482;-58
2024/01/31 00:13:12;;;;;;;5.22;2.28;;;9.20;1.00;;;;;;5093713;28;20429;-58
2024/01/31 00:15:39;;;;;;;5.10;2.40;;;9.20;1.00;;;;;;5092856;28;20869;-58
2024/01/31 00:18:06;;;;;;;6.63;2.75;;;9.20;1.00;;;;;;5094020;28;20734;-58
2024/01/31 00:20:33;;;;;;;3.40;2.30;;;9.20;1.00;;;;;;5093986;28;20418;-59
2024/01/31 00:23:00;;;;;;;6.00;2.50;;;9.20;1.00;;;;;;5095154;28;20414;-59
2024/01/31 00:25:29;;;;;;;3.78;2.10;;;9.20;1.00;;;;;;5094168;28;20438;-58
2024/01/31 00:27:56;;;;;;;3.77;2.30;;;9.30;1.00;;;;;;5093644;28;20557;-58
2024/01/31 00:30:23;;;;;;;6.03;2.20;;;9.20;1.00;;;;;;5094792;28;20426;-58
2024/01/31 00:32:50;;;;;;;4.13;1.40;;;9.20;1.00;;;;;;5094909;28;20426;-57
2024/01/31 00:35:17;;;;;;;3.28;1.92;;;9.20;1.00;;;;;;5094839;28;20434;-60
2024/01/31 00:37:44;;;;;;;4.20;2.00;;;9.20;99.90;;;;;;5094419;28;20784;-58
2024/01/31 00:40:11;;;;;;;5.50;2.08;;;9.20;99.90;;;;;;5093873;28;20429;-59
2024/01/31 00:42:42;;;;;;;4.00;1.70;;;9.20;99.90;;;;;;5093234;28;20499;-60
2024/01/31 00:45:11;;;;;;;4.10;1.80;;;9.10;99.90;;;;;;5093638;28;20414;-60
2024/01/31 00:47:38;;;;;;;4.80;2.20;;;9.10;99.90;;;;;;5094200;28;20438;-60
2024/01/31 00:50:06;;;;;;;4.72;1.60;;;9.10;99.90;;;;;;5093174;28;20421;-60
2024/01/31 00:52:33;;;;;;;6.40;2.00;;;9.00;99.90;;;;;;5092209;28;20434;-59
2024/01/31 00:55:00;;;;;;;3.15;1.90;;;9.00;1.00;;;;;;5072690;28;20493;-60
2024/01/31 00:57:27;;;;;;;4.20;2.00;;;9.00;1.00;;;;;;5081162;28;20437;-60
2024/01/31 00:59:55;;;;;;;4.13;2.25;;;9.10;1.00;;;;;;5091109;28;20426;-59
2024/01/31 01:02:22;;;;;;;5.25;2.40;;;9.10;99.90;;;;;;5092995;28;20425;-58
2024/01/31 01:04:51;;;;;;;5.05;1.80;;;9.20;99.90;;;;;;5084055;28;20419;-58
2024/01/31 01:07:18;;;;;;;4.15;2.00;;;9.20;99.90;;;;;;5073048;28;20473;-58
2024/01/31 01:09:45;;;;;;;5.07;2.13;;;9.20;99.90;;;;;;5072641;28;20424;-58
2024/01/31 01:12:12;;;;;;;6.88;2.40;;;9.20;99.90;;;;;;5073451;28;20756;-58
2024/01/31 01:14:39;;;;;;;6.47;1.85;;;9.20;99.90;;;;;;5086834;28;20971;-58
2024/01/31 01:17:07;;;;;;;3.28;2.15;;;9.20;99.90;;;;;;5093926;28;20410;-58
2024/01/31 01:19:34;;;;;;;3.30;2.20;;;9.10;99.90;;;;;;5093263;28;20429;-58
2024/01/31 01:22:01;;;;;;;6.80;1.80;;;9.10;99.90;;;;;;5093226;28;20426;-58
2024/01/31 01:24:28;;;;;;;3.20;1.80;;;9.10;99.90;;;;;;5092169;28;20844;-58
2024/01/31 01:26:55;;;;;;;3.80;1.75;;;9.10;99.90;;;;;;5091590;28;20426;-58
2024/01/31 01:29:22;;;;;;;4.43;1.95;;;9.00;1.00;;;;;;5094151;28;20418;-58
2024/01/31 01:31:49;;;;;;;4.10;1.70;;;9.10;1.00;;;;;;5093168;28;20493;-58
2024/01/31 01:34:18;;;;;;;3.75;1.77;;;9.10;99.90;;;;;;5092840;28;20441;-58
2024/01/31 01:36:46;;;;;;;5.20;2.00;;;9.20;99.90;;;;;;5092285;28;20893;-59
2024/01/31 01:39:13;;;;;;;6.28;1.92;;;9.10;99.90;;;;;;5092662;28;20428;-58
2024/01/31 01:41:40;;;;;;;3.10;2.00;;;9.10;99.90;;;;;;5091438;28;20429;-59
2024/01/31 01:44:07;;;;;;;4.55;1.70;;;9.10;99.90;;;;;;5091365;28;20508;-58
2024/01/31 01:46:36;;;;;;;2.75;1.40;;;9.10;99.90;;;;;;5091668;28;20425;-58
2024/01/31 01:49:03;;;;;;;2.70;1.75;;;9.10;99.90;;;;;;5092087;28;20429;-58
2024/01/31 01:51:32;;;;;;;4.32;1.73;;;9.20;99.90;;;;;;5092835;28;20479;-58
2024/01/31 01:53:59;;;;;;;3.30;1.60;;;9.10;99.90;;;;;;5093923;28;20804;-58
2024/01/31 01:56:27;;;;;;;3.15;1.70;;;9.10;99.90;;;;;;5093029;28;20482;-59
2024/01/31 01:58:56;;;;;;;3.00;1.60;;;9.10;99.90;;;;;;5089961;28;20426;-58
2024/01/31 02:01:25;;;;;;;4.18;1.67;;;9.00;99.90;;;;;;5091971;28;20507;-58
2024/01/31 02:03:56;;;;;;;3.40;1.70;;;9.10;99.90;;;;;;5090903;28;20426;-58
2024/01/31 02:06:24;;;;;;;3.42;1.73;;;9.10;99.90;;;;;;5092890;28;20426;-58
2024/01/31 02:08:53;;;;;;;4.10;1.90;;;9.10;99.90;;;;;;5090847;28;20430;-58
2024/01/31 02:11:20;;;;;;;3.95;2.13;;;9.10;99.90;;;;;;5076513;28;20435;-58
2024/01/31 02:13:47;;;;;;;4.85;1.85;;;9.10;99.90;;;;;;5078349;28;20428;-58
2024/01/31 02:16:14;;;;;;;3.90;2.10;;;9.20;99.90;;;;;;5093011;28;20426;-59
2024/01/31 02:18:41;;;;;;;4.55;1.80;;;9.30;99.90;;;;;;5091516;28;20432;-59
2024/01/31 02:21:08;;;;;;;4.30;1.80;;;9.30;99.90;;;;;;5078777;28;20849;-58
2024/01/31 02:23:36;;;;;;;4.95;2.30;;;9.30;99.90;;;;;;5071403;28;20419;-58
2024/01/31 02:26:04;;;;;;;5.97;1.90;;;9.30;99.90;;;;;;5089696;28;20700;-58
2024/01/31 02:28:31;;;;;;;3.80;1.80;;;9.20;99.90;;;;;;5091587;28;20487;-59
2024/01/31 02:30:58;;;;;;;6.30;1.80;;;9.10;99.90;;;;;;5090450;28;20430;-59
2024/01/31 02:33:25;;;;;;;5.45;1.83;;;9.10;99.90;;;;;;5085331;28;20760;-59
2024/01/31 02:35:52;;;;;;;5.20;2.15;;;9.10;99.90;;;;;;5072892;28;20435;-59
2024/01/31 02:38:19;;;;;;;3.70;1.77;;;9.10;1.00;;;;;;5073993;28;20416;-58
2024/01/31 02:40:48;;;;;;;5.25;2.22;;;9.10;99.90;;;;;;5075376;28;20484;-59
2024/01/31 02:43:15;;;;;;;4.55;1.80;;;9.20;99.90;;;;;;5077842;28;20458;-58
2024/01/31 02:45:42;;;;;;;3.35;1.75;;;9.10;99.90;;;;;;5095572;28;20417;-59
2024/01/31 02:48:09;;;;;;;2.80;1.40;;;9.10;99.90;;;;;;5076228;28;20430;-59
2024/01/31 02:50:36;;;;;;;4.25;1.80;;;9.10;1.00;;;;;;5076176;28;20775;-59
2024/01/31 02:53:03;;;;;;;3.65;1.83;;;9.00;1.00;;;;;;5082203;28;20418;-59
2024/01/31 02:55:30;;;;;;;3.83;1.50;;;9.10;1.00;;;;;;5095652;28;20452;-59
2024/01/31 02:57:58;;;;;;;4.20;1.80;;;9.10;1.00;;;;;;5096062;28;20689;-59
2024/01/31 03:00:25;;;;;;;2.70;1.38;;;9.20;99.90;;;;;;5096087;28;21048;-59
2024/01/31 03:02:52;;;;;;;3.08;1.40;;;9.20;99.90;;;;;;5095136;28;20439;-59
2024/01/31 03:05:19;;;;;;;7.50;2.00;;;9.20;99.90;;;;;;5096019;28;20803;-59
2024/01/31 03:07:46;;;;;;;2.90;1.60;;;9.20;99.90;;;;;;5096043;28;20471;-58
2024/01/31 03:10:13;;;;;;;4.22;1.83;;;9.20;99.90;;;;;;5095723;28;20502;-58
2024/01/31 03:12:40;;;;;;;3.95;1.60;;;9.20;99.90;;;;;;5096172;28;20425;-59
2024/01/31 03:15:09;;;;;;;3.40;1.40;;;9.20;99.90;;;;;;5095337;28;20438;-58
2024/01/31 03:17:36;;;;;;;3.13;1.80;;;9.20;99.90;;;;;;5095958;28;20792;-58
2024/01/31 03:20:05;;;;;;;3.60;2.00;;;9.30;99.90;;;;;;5096363;28;20482;-59
2024/01/31 03:22:32;;;;;;;2.42;1.40;;;9.30;99.90;;;;;;5095939;28;20433;-59
2024/01/31 03:24:59;;;;;;;2.30;1.40;;;9.30;99.90;;;;;;5094270;28;20421;-59
2024/01/31 03:27:26;;;;;;;4.03;1.85;;;9.30;99.90;;;;;;5095593;28;21003;-59
2024/01/31 03:29:53;;;;;;;4.20;1.63;;;9.30;99.90;;;;;;5094575;28;20422;-59
2024/01/31 03:32:21;;;;;;;4.93;1.60;;;9.20;99.90;;;;;;5094864;28;20489;-59
2024/01/31 03:34:48;;;;;;;3.60;2.10;;;9.20;99.90;;;;;;5095728;28;20441;-59
2024/01/31 03:37:15;;;;;;;3.45;2.00;;;9.20;99.90;;;;;;5094461;28;20422;-59
2024/01/31 03:39:42;;;;;;;3.80;1.60;;;9.10;1.00;;;;;;5096119;28;20425;-60
2024/01/31 03:42:09;;;;;;;4.13;1.83;;;9.10;1.00;;;;;;5095924;28;20425;-59
2024/01/31 03:44:36;;;;;;;4.30;1.80;;;9.20;1.00;;;;;;5095647;28;20991;-59
2024/01/31 03:47:03;;;;;;;3.55;1.50;;;9.10;1.00;;;;;;5093834;28;20839;-59
2024/01/31 03:49:32;;;;;;;3.97;1.60;;;9.00;1.00;;;;;;5095751;28;20483;-59
2024/01/31 03:51:59;;;;;;;3.17;1.73;;;9.10;1.00;;;;;;5092523;28;20739;-58
2024/01/31 03:54:26;;;;;;;4.10;1.77;;;9.10;1.00;;;;;;5079319;28;20919;-59
2024/01/31 03:56:53;;;;;;;3.28;1.40;;;9.00;1.00;;;;;;5095019;28;20491;-59
2024/01/31 03:59:20;;;;;;;1.95;1.10;;;9.10;99.90;;;;;;5094525;28;20418;-58
2024/01/31 04:01:50;;;;;;;2.50;1.30;;;9.10;99.90;;;;;;5094530;28;20418;-59
2024/01/31 04:04:17;;;;;;;2.47;1.40;;;9.20;99.90;;;;;;5093912;28;20430;-59
2024/01/31 04:06:45;;;;;;;2.92;1.30;;;9.20;18.50;;;;;;5094049;28;20688;-59
2024/01/31 04:09:13;;;;;;;5.20;1.60;;;9.20;99.90;;;;;;5093878;28;20867;-60
2024/01/31 04:11:40;;;;;;;3.70;1.58;;;9.20;99.90;;;;;;5078867;28;20435;-59
2024/01/31 04:14:07;;;;;;;2.50;1.40;;;9.20;99.90;;;;;;5082832;28;20770;-59
2024/01/31 04:16:34;;;;;;;4.35;1.58;;;9.20;99.90;;;;;;5094108;28;20433;-59
2024/01/31 04:19:01;;;;;;;3.40;1.80;;;9.20;99.90;;;;;;5094486;28;20430;-59
2024/01/31 04:21:29;;;;;;;3.47;1.90;;;9.20;99.90;;;;;;5096006;28;20421;-59
2024/01/31 04:23:57;;;;;;;5.35;2.00;;;9.20;1.00;;;;;;5094397;28;20486;-59
2024/01/31 04:26:24;;;;;;;4.25;2.20;;;9.20;46.10;;;;;;5093783;28;20410;-59
2024/01/31 04:28:51;;;;;;;3.13;1.88;;;9.20;99.90;;;;;;5092516;28;20815;-59
2024/01/31 04:31:18;;;;;;;5.22;2.22;;;9.20;99.90;;;;;;5094879;28;20425;-59
2024/01/31 04:33:45;;;;;;;2.47;1.40;;;9.30;99.90;;;;;;5093590;28;20430;-59
2024/01/31 04:36:12;;;;;;;3.22;1.55;;;9.20;99.90;;;;;;5094302;28;20437;-59
2024/01/31 04:38:39;;;;;;;2.60;1.70;;;9.30;99.90;;;;;;5093805;28;20445;-59
2024/01/31 04:41:07;;;;;;;3.90;2.07;;;9.30;99.90;;;;;;5075701;28;20511;-59
2024/01/31 04:43:34;;;;;;;4.72;1.85;;;9.30;99.90;;;;;;5076539;28;20720;-60
2024/01/31 04:46:02;;;;;;;2.90;1.52;;;9.30;99.90;;;;;;5091667;28;20457;-59
2024/01/31 04:48:29;;;;;;;5.60;2.20;;;9.30;99.90;;;;;;5091563;28;20429;-60
2024/01/31 04:50:56;;;;;;;4.75;2.60;;;9.20;99.90;;;;;;5094421;28;20456;-59
2024/01/31 04:53:23;;;;;;;4.28;1.83;;;9.30;99.90;;;;;;5092409;28;20475;-59
2024/01/31 04:55:49;;;;;;;4.95;2.60;;;9.30;99.90;;;;;;5093152;28;20499;-59
2024/01/31 04:58:18;;;;;;;3.90;2.47;;;9.30;4.60;;;;;;5093334;28;20440;-60
2024/01/31 05:00:45;;;;;;;3.83;2.08;;;9.20;22.40;;;;;;5092158;28;20763;-60
2024/01/31 05:03:12;;;;;;;5.97;2.40;;;9.20;99.90;;;;;;5093117;28;20517;-59
2024/01/31 05:05:39;;;;;;;4.32;2.03;;;9.20;92.70;;;;;;5079340;28;20428;-59
2024/01/31 05:08:07;;;;;;;4.68;2.67;;;9.30;1.00;;;;;;5073244;28;20411;-59
2024/01/31 05:10:34;;;;;;;5.70;2.90;;;9.30;1.00;;;;;;5071623;28;20435;-59
2024/01/31 05:13:01;;;;;;;6.07;2.60;;;9.30;1.00;;;;;;5080596;28;20882;-59
2024/01/31 05:15:31;;;;;;;3.58;1.98;;;9.30;1.00;;;;;;5092520;28;20827;-59
2024/01/31 05:17:58;;;;;;;4.95;2.60;;;9.30;1.00;;;;;;5091319;28;20861;-59
2024/01/31 05:20:25;;;;;;;5.20;2.47;;;9.30;1.00;;;;;;5074795;28;20526;-59
2024/01/31 05:22:52;;;;;;;5.20;2.47;;;9.30;1.00;;;;;;5072046;28;20490;-59
2024/01/31 05:25:19;;;;;;;4.47;3.30;;;9.20;1.00;;;;;;5092240;28;20418;-59
2024/01/31 05:27:46;;;;;;;4.30;2.67;;;9.20;1.00;;;;;;5082363;28;20433;-59
2024/01/31 05:30:14;;;;;;;4.93;3.10;;;9.20;1.00;;;;;;5070784;28;20438;-59
2024/01/31 05:32:45;;;;;;;5.25;2.92;;;9.20;1.00;;;;;;5071000;28;20435;-59
2024/01/31 05:35:12;;;;;;;5.30;2.47;;;9.30;1.00;;;;;;5072541;28;20439;-59
2024/01/31 05:37:39;;;;;;;5.28;2.90;;;9.20;1.00;;;;;;5081948;28;20439;-59
2024/01/31 05:40:08;;;;;;;4.75;3.00;;;9.20;1.00;;;;;;5070471;28;20427;-59
2024/01/31 05:42:35;;;;;;;4.35;2.20;;;9.10;78.40;;;;;;5076732;28;20437;-59
2024/01/31 05:45:03;;;;;;;3.28;2.08;;;9.20;99.90;;;;;;5088683;28;20948;-59
2024/01/31 05:47:29;;;;;;;5.53;2.47;;;9.30;67.30;;;;;;5079310;28;20459;-59
2024/01/31 05:49:58;;;;;;;5.00;2.78;;;9.30;1.00;;;;;;5082371;28;20580;-60
2024/01/31 05:52:25;;;;;;;4.40;1.40;;;9.20;99.90;;;;;;5073536;28;20423;-61
2024/01/31 05:54:52;;;;;;;4.65;2.00;;;9.30;99.90;;;;;;5075704;28;20456;-60
2024/01/31 05:57:19;;;;;;;2.85;1.70;;;9.60;99.90;;;;;;5079603;28;20772;-60
2024/01/31 05:59:46;;;;;;;6.47;1.70;;;9.70;1.00;;;;;;5070357;28;20430;-60
2024/01/31 06:02:13;;;;;;;4.03;1.65;;;9.70;1.00;;;;;;5070476;28;20415;-60
2024/01/31 06:04:41;;;;;;;2.50;1.45;;;9.60;99.90;;;;;;5070305;28;20431;-60
2024/01/31 06:07:10;;;;;;;5.55;1.52;;;9.70;1.00;;;;;;5074844;28;20516;-60
2024/01/31 06:09:37;;;;;;;5.65;1.70;;;9.60;99.90;;;;;;5089862;28;20484;-61
2024/01/31 06:12:04;;;;;;;4.00;1.67;;;9.70;1.00;;;;;;5089905;28;20420;-61
2024/01/31 06:14:31;;;;;;;3.15;1.90;;;9.80;1.00;;;;;;5093663;28;20473;-61
2024/01/31 06:16:58;;;;;;;2.90;1.80;;;9.80;1.00;;;;;;5083336;28;20919;-61
2024/01/31 06:19:25;;;;;;;3.92;1.80;;;9.70;1.00;;;;;;5081305;28;20439;-61
2024/01/31 06:21:52;;;;;;;4.07;1.55;;;9.60;99.90;;;;;;5089789;28;20434;-61
2024/01/31 06:24:21;;;;;;;3.50;2.70;;;9.60;1.00;;;;;;5085870;28;20508;-60
2024/01/31 06:26:48;;;;;;;4.40;2.20;;;9.60;99.90;;;;;;5079202;28;20439;-60
2024/01/31 06:29:18;;;;;;;3.20;1.90;;;9.50;99.90;;;;;;5085972;28;20422;-61
2024/01/31 06:31:47;;;;;;;2.80;1.80;;;9.50;99.90;;;;;;5074595;28;20431;-62
2024/01/31 06:34:18;;;;;;;4.88;2.00;;;9.80;1.00;;;;;;5085853;28;20476;-63
2024/01/31 06:36:47;;;;;;;4.13;2.15;;;9.90;99.90;;;;;;5084761;28;20846;-62
2024/01/31 06:39:14;;;;;;;4.25;2.78;;;10.10;1.00;;;;;;5087976;28;20437;-62
2024/01/31 06:41:43;;;;;;;4.63;2.78;;;10.10;1.00;;;;;;5074068;28;20428;-62
2024/01/31 06:44:10;;;;;;;4.60;3.13;;;10.00;99.90;;;;;;5086952;28;20768;-62
2024/01/31 06:46:36;;;;;;;3.95;2.20;;;9.90;1.00;;;;;;5094737;28;20495;-62
2024/01/31 06:49:04;;;;;;;4.55;2.60;;;9.90;99.90;;;;;;5080724;28;20745;-62
2024/01/31 06:51:31;;;;;;;6.70;3.00;;;9.80;99.90;;;;;;5094350;28;20418;-63
2024/01/31 06:53:59;;;;;;;4.30;2.70;;;9.80;1.00;;;;;;5092610;28;20460;-62
2024/01/31 06:56:26;;;;;;;4.13;2.25;;;9.80;99.90;;;;;;5092971;28;20711;-62
2024/01/31 06:58:56;;;;;;;3.90;2.45;;;10.00;53.90;;;;;;5094586;28;20718;-62
2024/01/31 07:01:23;;;;;;;5.85;2.80;;;9.90;1.00;;;;;;5093738;28;20834;-63
2024/01/31 07:03:50;;;;;;;4.57;2.75;;;9.80;1.00;;;;;;5093441;28;20498;-62
2024/01/31 07:06:17;;;;;;;4.38;3.10;;;9.80;1.00;;;;;;5093502;28;20455;-62
2024/01/31 07:08:44;;;;;;;4.95;2.92;;;9.70;1.00;;;;;;5092059;28;20544;-62
2024/01/31 07:11:11;;;;;;;7.80;3.20;;;9.50;99.90;;;;;;5091520;28;20414;-62
2024/01/31 07:13:39;;;;;;;4.65;2.95;;;9.30;1.00;;;;;;5090850;28;20650;-62
2024/01/31 07:16:10;;;;;;;3.08;2.22;;;9.10;56.90;;;;;;5091256;28;20440;-62
2024/01/31 07:18:39;;;;;;;4.93;2.55;;;9.20;99.90;;;;;;5091767;28;20428;-63
2024/01/31 07:21:06;;;;;;;6.90;3.00;;;9.40;99.90;;;;;;5091592;28;20425;-64
2024/01/31 07:23:33;;;;;;;4.95;2.55;;;9.60;1.00;;;;;;5091515;28;20464;-63
2024/01/31 07:26:00;;;;;;;4.70;2.80;;;9.60;99.90;;;;;;5091514;28;20475;-63
2024/01/31 07:28:27;;;;;;;5.75;2.67;;;9.50;1.00;;;;;;5090681;28;20859;-63
2024/01/31 07:30:54;;;;;;;3.80;2.65;;;9.40;56.60;;;;;;5092496;28;20417;-63
2024/01/31 07:33:23;;;;;;;5.93;2.63;;;9.30;99.90;;;;;;5092019;28;20581;-63
2024/01/31 07:35:50;;;;;;;5.30;2.25;;;9.30;99.90;;;;;;5091290;28;20418;-61
2024/01/31 07:38:17;;;;;;;6.10;3.47;;;9.20;99.90;;;;;;5091848;28;20441;-61
2024/01/31 07:40:44;;;;;;;6.35;3.17;;;9.20;99.90;;;;;;5091720;28;20418;-61
2024/01/31 07:43:10;;;;;;;7.47;3.88;;;9.20;1.00;;;;;;5091000;28;20434;-61
2024/01/31 07:45:37;;;;;;;5.32;3.38;;;9.10;1.00;;;;;;5092022;28;20429;-61
2024/01/31 07:48:05;;;;;;;6.60;3.85;;;9.10;1.00;;;;;;5089626;28;20479;-60
2024/01/31 07:50:34;;;;;;;4.28;3.10;;;9.20;1.00;;;;;;5090608;28;20486;-61
2024/01/31 07:53:02;;;;;;;4.93;2.90;;;9.20;1.00;;;;;;5092307;28;20437;-60
2024/01/31 07:55:29;;;;;;;5.85;2.80;;;9.20;1.00;;;;;;5090172;28;20475;-60
2024/01/31 07:57:56;;;;;;;4.80;3.20;;;9.20;1.00;;;;;;5090987;28;20956;-61
2024/01/31 08:00:24;;;;;;;4.47;2.83;;;9.10;1.00;;;;;;5088528;28;20835;-61
2024/01/31 08:02:51;;;;;;;3.95;2.10;;;9.20;1.00;;;;;;5081431;28;20429;-60
2024/01/31 08:05:18;;;;;;;7.20;3.35;;;9.50;1.00;;;;;;5075025;28;20437;-61
2024/01/31 08:07:46;;;;;;;4.53;2.60;;;9.80;1.00;;;;;;5081017;28;20412;-62
2024/01/31 08:10:14;;;;;;;5.95;3.08;;;9.80;1.00;;;;;;5088627;28;20443;-62
2024/01/31 08:12:43;;;;;;;6.00;2.30;;;9.80;1.00;;;;;;5084397;28;20608;-62
2024/01/31 08:15:10;;;;;;;4.60;2.80;;;9.80;1.00;;;;;;5079904;28;20425;-62
2024/01/31 08:17:37;;;;;;;5.78;3.10;;;9.80;1.00;;;;;;5087122;28;20473;-62
2024/01/31 08:20:06;;;;;;;3.80;2.47;;;9.70;1.00;;;;;;5088355;28;20434;-62
2024/01/31 08:22:33;;;;;;;5.55;3.25;;;9.60;1.00;;;;;;5086299;28;20447;-62
2024/01/31 08:25:01;;;;;;;4.10;2.70;;;9.50;1.00;;;;;;5071753;28;20439;-62
2024/01/31 08:27:28;;;;;;;4.93;3.00;;;9.50;1.00;;;;;;5077007;28;20485;-62
2024/01/31 08:29:55;;;;;;;6.18;2.55;;;9.50;1.00;;;;;;5072110;28;20519;-61
2024/01/31 08:32:22;;;;;;;5.13;3.05;;;9.50;1.00;;;;;;5091091;28;20481;-61
2024/01/31 08:34:49;;;;;;;5.35;3.10;;;9.50;1.00;;;;;;5081645;28;20435;-61
2024/01/31 08:37:16;;;;;;;3.60;3.00;;;9.50;1.00;;;;;;5078052;28;20499;-62
2024/01/31 08:39:43;;;;;;;5.70;3.10;;;9.60;1.00;;;;;;5090520;28;20456;-61
2024/01/31 08:42:13;;;;;;;6.45;3.78;;;9.50;1.00;;;;;;5083351;28;20582;-61
2024/01/31 08:44:40;;;;;;;6.50;3.60;;;9.50;1.00;;;;;;5091546;28;20502;-61
2024/01/31 08:47:07;;;;;;;4.60;3.00;;;9.50;1.00;;;;;;5087516;28;20497;-61
2024/01/31 08:49:33;;;;;;;5.53;2.80;;;9.50;1.00;;;;;;5072610;28;20441;-61
2024/01/31 08:52:01;;;;;;;6.20;3.95;;;9.60;1.00;;;;;;5073802;28;20532;-61
2024/01/31 08:54:28;;;;;;;4.93;2.65;;;9.60;1.00;;;;;;5076246;28;20832;-61
2024/01/31 08:56:55;;;;;;;6.03;3.47;;;9.60;1.00;;;;;;5086830;28;20444;-59
2024/01/31 08:59:24;;;;;;;7.55;3.80;;;9.60;1.00;;;;;;5086804;28;20469;-59
2024/01/31 09:01:51;;;;;;;8.20;4.40;;;9.60;1.00;;;;;;5080566;28;20432;-60
2024/01/31 09:04:18;;;;;;;7.53;3.28;;;9.60;1.00;;;;;;5082011;28;20441;-60
2024/01/31 09:06:45;;;;;;;6.65;3.80;;;9.60;1.00;;;;;;5089418;28;20430;-60
2024/01/31 09:09:12;;;;;;;6.25;4.03;;;9.60;1.00;;;;;;5082268;28;20974;-60
2024/01/31 09:11:39;;;;;;;5.60;4.07;;;9.50;1.00;;;;;;5086347;28;20438;-60
2024/01/31 09:14:06;;;;;;;6.55;3.90;;;9.50;1.00;;;;;;5085891;28;21052;-60
2024/01/31 09:16:35;;;;;;;7.05;4.80;;;9.30;13.10;;;;;;5081441;28;20813;-60
2024/01/31 09:19:03;;;;;;;6.60;4.37;;;9.30;33.80;;;;;;5082638;28;20453;-60
2024/01/31 09:21:30;;;;;;;6.93;3.75;;;9.30;36.10;;;;;;5083194;28;20805;-60
2024/01/31 09:23:58;;;;;;;8.77;4.68;;;9.40;24.00;;;;;;5078830;28;20757;-60
2024/01/31 09:26:25;;;;;;;6.35;4.20;;;9.40;15.20;;;;;;5073231;28;20452;-60
2024/01/31 09:28:52;;;;;;;7.55;4.82;;;9.40;24.30;;;;;;5085901;28;20442;-59
2024/01/31 09:31:22;;;;;;;7.65;4.63;;;9.50;25.20;;;;;;5084093;28;20887;-59
2024/01/31 09:33:51;;;;;;;7.37;4.37;;;9.50;4.50;;;;;;5078744;28;20447;-59
2024/01/31 09:36:18;;;;;;;7.85;4.85;;;9.50;1.00;;;;;;5084171;28;20437;-58
2024/01/31 09:38:47;;;;;;;5.45;4.50;;;9.50;3.60;;;;;;5073742;28;20522;-58
2024/01/31 09:41:16;;;;;;;8.20;4.53;;;9.60;1.00;;;;;;5083137;28;21050;-58
2024/01/31 09:43:43;;;;;;;8.35;5.07;;;9.50;1.00;;;;;;5084228;28;20433;-60
2024/01/31 09:46:11;;;;;;;8.47;5.20;;;9.50;1.70;;;;;;5087176;28;20434;-58
2024/01/31 09:48:39;;;;;;;6.90;4.15;;;9.70;1.00;;;;;;5083028;28;20432;-58
2024/01/31 09:51:08;;;;;;;7.40;4.03;;;9.80;1.00;;;;;;5079725;28;20848;-59
2024/01/31 09:53:37;;;;;;;8.00;3.90;;;9.90;1.00;;;;;;5081659;28;20446;-59
2024/01/31 09:56:05;;;;;;;9.07;4.45;;;10.00;1.00;;;;;;5084207;28;20735;-59
2024/01/31 09:58:32;;;;;;;6.57;4.45;;;10.10;1.00;;;;;;5078827;28;21185;-59
2024/01/31 10:01:00;;;;;;;7.97;5.20;;;10.20;1.00;;;;;;5073770;28;20439;-59
2024/01/31 10:03:28;;;;;;;7.07;4.68;;;10.20;1.00;;;;;;5075758;28;20918;-59
2024/01/31 10:05:55;;;;;;;7.55;4.90;;;10.10;1.00;;;;;;5083673;28;21197;-60
2024/01/31 10:08:23;;;;;;;8.65;5.30;;;10.20;1.00;;;;;;5071995;28;20864;-59
2024/01/31 10:10:51;;;;;;;9.25;5.30;;;10.30;1.00;;;;;;5080813;28;20434;-60
2024/01/31 10:13:18;;;;;;;7.70;4.70;;;10.30;1.00;;;;;;5087388;28;20449;-59
2024/01/31 10:15:45;;;;;;;7.77;3.80;;;10.30;1.00;;;;;;5073557;28;20444;-59
2024/01/31 10:18:12;;;;;;;8.70;4.47;;;10.50;1.00;;;;;;5068495;28;20757;-59
2024/01/31 10:20:39;;;;;;;8.57;5.40;;;10.60;1.00;;;;;;5075681;28;20590;-60
2024/01/31 10:23:06;;;;;;;7.00;4.90;;;10.70;1.00;;;;;;5070461;28;20878;-60
2024/01/31 10:25:35;;;;;;;8.90;4.47;;;10.60;1.00;;;;;;5080234;28;20901;-60
2024/01/31 10:28:04;;;;;;;6.50;4.53;;;10.60;1.00;;;;;;5085550;28;20434;-60
2024/01/31 10:30:31;;;;;;;7.73;5.10;;;10.40;1.00;;;;;;5076657;28;20616;-59
2024/01/31 10:33:01;;;;;;;8.10;5.63;;;10.30;1.00;;;;;;5082184;28;20499;-60
2024/01/31 10:35:30;;;;;;;9.00;6.13;;;10.30;1.00;;;;;;5076657;28;20434;-60
2024/01/31 10:37:57;;;;;;;10.35;6.18;;;10.30;1.00;;;;;;5075385;28;20434;-60
2024/01/31 10:40:28;;;;;;;8.05;5.20;;;10.30;1.00;;;;;;5073488;28;20940;-62
2024/01/31 10:43:26;;;;;;;10.63;5.80;;;10.20;1.00;;;;;;5122747;27;20388;-61
2024/01/31 10:45:53;;;;;;;11.00;6.63;;;10.30;1.00;;;;;;5092653;28;20437;-64
2024/01/31 10:48:20;;;;;;;9.52;6.57;;;10.30;1.00;;;;;;5109079;28;20890;-64
2024/01/31 10:50:54;;;;;;;9.10;6.03;;;10.20;1.00;;;;;;5112971;28;21028;-64
2024/01/31 10:53:23;;;;;;;8.55;5.75;;;10.20;1.00;;;;;;5101347;28;20444;-63
2024/01/31 10:55:52;;;;;;;8.25;5.35;;;10.10;1.00;;;;;;5105960;28;20757;-64
2024/01/31 10:58:21;;;;;;;9.70;5.80;;;10.00;1.00;;;;;;5103690;28;20433;-64
2024/01/31 11:00:49;;;;;;;8.35;5.15;;;10.00;1.00;;;;;;5099063;28;20502;-64
2024/01/31 11:03:18;;;;;;;11.02;6.90;;;10.20;1.00;;;;;;5102291;28;20429;-65
2024/01/31 11:05:45;;;;;;;9.07;5.72;;;10.30;1.00;;;;;;5103530;28;20444;-64
2024/01/31 11:08:18;;;;;;;10.02;6.50;;;10.50;1.00;;;;;;5101846;28;20438;-64
2024/01/31 11:10:45;;;;;;;8.77;5.40;;;10.60;1.00;;;;;;5103012;28;20436;-64
2024/01/31 11:13:12;;;;;;;13.55;6.80;;;10.60;1.00;;;;;;5101224;28;20454;-64
2024/01/31 11:15:40;;;;;;;8.43;5.65;;;10.50;1.00;;;;;;5100502;28;20441;-64
2024/01/31 11:18:09;;;;;;;8.45;5.60;;;10.40;1.00;;;;;;5107509;28;20449;-63
2024/01/31 11:20:38;;;;;;;9.23;6.25;;;10.40;1.00;;;;;;5102339;28;20876;-63
2024/01/31 11:23:06;;;;;;;7.45;5.35;;;10.50;1.00;;;;;;5104873;28;20494;-62
2024/01/31 11:25:34;;;;;;;12.40;6.43;;;10.40;1.00;;;;;;5101393;28;20437;-64
2024/01/31 11:28:02;;;;;;;9.43;6.80;;;10.50;1.00;;;;;;5098718;28;20441;-63
2024/01/31 11:30:29;;;;;;;9.23;5.93;;;10.70;1.00;;;;;;5093260;28;20445;-63
2024/01/31 11:32:56;;;;;;;7.32;5.85;;;10.70;1.00;;;;;;5097012;28;20441;-63
2024/01/31 11:35:25;;;;;;;8.48;5.53;;;10.80;1.00;;;;;;5101817;28;20523;-63
2024/01/31 11:37:53;;;;;;;10.10;5.10;;;10.90;99.90;;;;;;5094993;28;20425;-62
2024/01/31 11:40:20;;;;;;;8.70;6.75;;;11.00;99.90;;;;;;5096287;28;20585;-62
2024/01/31 11:42:48;;;;;;;8.57;5.63;;;11.10;99.90;;;;;;5103249;28;20444;-63
2024/01/31 11:45:16;;;;;;;8.75;5.45;;;11.10;99.90;;;;;;5093981;28;20492;-63
2024/01/31 11:47:44;;;;;;;8.00;5.10;;;11.10;99.90;;;;;;5103004;28;20695;-62
2024/01/31 11:50:11;;;;;;;7.30;5.57;;;11.00;99.90;;;;;;5101439;28;20433;-62
2024/01/31 11:52:41;;;;;;;7.22;5.20;;;11.00;99.90;;;;;;5101756;27;20425;-62
2024/01/31 11:55:11;;;;;;;7.50;4.93;;;11.00;99.90;;;;;;5079532;28;20469;-63
2024/01/31 11:57:38;;;;;;;7.40;4.43;;;11.20;99.90;;;;;;5083998;28;20438;-62
2024/01/31 12:00:06;;;;;;;8.23;5.50;;;11.10;99.90;;;;;;5076824;28;20445;-64
2024/01/31 12:02:33;;;;;;;8.43;5.40;;;11.00;99.90;;;;;;5085658;28;20437;-64
2024/01/31 12:05:00;;;;;;;9.52;5.45;;;11.00;99.90;;;;;;5081823;28;20430;-64
2024/01/31 12:07:29;;;;;;;8.30;5.03;;;11.00;99.90;;;;;;5086648;28;20459;-64
2024/01/31 12:09:57;;;;;;;11.13;6.55;;;11.00;99.90;;;;;;5080828;28;20441;-64
2024/01/31 12:12:25;;;;;;;8.10;5.88;;;11.20;99.90;;;;;;5082176;28;21037;-63
2024/01/31 12:14:52;;;;;;;8.63;5.88;;;11.30;58.40;;;;;;5076421;28;20433;-64
2024/01/31 12:17:20;;;;;;;8.55;5.70;;;11.30;1.00;;;;;;5087179;28;20434;-64
2024/01/31 12:19:47;;;;;;;8.30;5.63;;;11.20;1.00;;;;;;5079201;28;20808;-64
2024/01/31 12:22:15;;;;;;;9.05;5.53;;;11.30;99.90;;;;;;5088392;28;20820;-64
2024/01/31 12:24:42;;;;;;;8.40;5.17;;;11.50;1.00;;;;;;5085254;28;20877;-63
2024/01/31 12:27:10;;;;;;;7.10;4.30;;;11.60;25.30;;;;;;5087345;28;20438;-64
2024/01/31 12:29:37;;;;;;;8.25;6.32;;;11.60;71.60;;;;;;5078635;28;20438;-64
2024/01/31 12:32:05;;;;;;;11.13;6.53;;;11.60;1.70;;;;;;5081027;28;21061;-64
2024/01/31 12:34:32;;;;;;;6.88;5.38;;;11.60;99.90;;;;;;5090040;28;20471;-64
2024/01/31 12:36:59;;;;;;;7.17;5.00;;;11.60;32.40;;;;;;5079425;28;21200;-64
2024/01/31 12:39:26;;;;;;;9.90;6.07;;;11.60;41.70;;;;;;5075556;28;20518;-64
2024/01/31 12:41:54;;;;;;;8.02;5.63;;;11.60;1.00;;;;;;5076369;28;20469;-64
2024/01/31 12:44:22;;;;;;;7.80;5.78;;;11.50;1.00;;;;;;5084638;28;20898;-64
2024/01/31 12:46:49;;;;;;;9.00;5.90;;;11.50;99.90;;;;;;5086047;28;20651;-64
2024/01/31 12:49:16;;;;;;;11.98;6.38;;;11.40;99.90;;;;;;5084923;28;20441;-63
2024/01/31 12:51:43;;;;;;;10.02;5.53;;;11.50;99.90;;;;;;5086821;28;20445;-65
2024/01/31 12:54:10;;;;;;;9.27;4.97;;;11.50;1.00;;;;;;5085332;28;20446;-62
2024/01/31 12:56:38;;;;;;;9.10;5.95;;;11.50;1.00;;;;;;5087884;28;20470;-64
2024/01/31 12:59:05;;;;;;;10.60;6.00;;;11.50;1.00;;;;;;5089116;28;20589;-63
2024/01/31 13:01:34;;;;;;;7.57;5.30;;;11.50;99.90;;;;;;5086243;28;20882;-63